sensor_id;sensor_type;location;lat;lon;timestamp;temperature;humidity
33564;DHT22;19894;48.452;11.494;2022-07-29T00:01:06;23.80;57.80
33564;DHT22;19894;48.452;11.494;2022-07-29T00:03:31;23.80;57.80
33564;DHT22;19894;48.452;11.494;2022-07-29T00:05:57;23.80;57.70
33564;DHT22;19894;48.452;11.494;2022-07-29T00:08:22;23.80;57.80
33564;DHT22;19894;48.452;11.494;2022-07-29T00:10:48;23.80;57.70
33564;DHT22;19894;48.452;11.494;2022-07-29T00:13:14;23.80;57.70
33564;DHT22;19894;48.452;11.494;2022-07-29T00:15:39;23.70;57.70
33564;DHT22;19894;48.452;11.494;2022-07-29T00:18:05;23.80;57.70
33564;DHT22;19894;48.452;11.494;2022-07-29T00:20:31;23.70;57.70
33564;DHT22;19894;48.452;11.494;2022-07-29T00:22:56;23.70;57.70
33564;DHT22;19894;48.452;11.494;2022-07-29T00:25:22;23.70;57.80
33564;DHT22;19894;48.452;11.494;2022-07-29T00:27:47;23.70;57.80
33564;DHT22;19894;48.452;11.494;2022-07-29T00:30:13;23.70;57.90
33564;DHT22;19894;48.452;11.494;2022-07-29T00:32:39;23.70;57.90
33564;DHT22;19894;48.452;11.494;2022-07-29T00:35:05;23.70;58.00
33564;DHT22;19894;48.452;11.494;2022-07-29T00:37:49;23.70;58.00
33564;DHT22;19894;48.452;11.494;2022-07-29T00:40:15;23.70;58.10
33564;DHT22;19894;48.452;11.494;2022-07-29T00:42:49;23.70;58.10
33564;DHT22;19894;48.452;11.494;2022-07-29T00:45:15;23.70;58.10
33564;DHT22;19894;48.452;11.494;2022-07-29T00:47:41;23.70;58.10
33564;DHT22;19894;48.452;11.494;2022-07-29T00:50:08;23.80;58.20
33564;DHT22;19894;48.452;11.494;2022-07-29T00:52:37;23.80;58.20
33564;DHT22;19894;48.452;11.494;2022-07-29T00:55:04;23.80;58.30
33564;DHT22;19894;48.452;11.494;2022-07-29T00:57:30;23.70;58.20
33564;DHT22;19894;48.452;11.494;2022-07-29T00:59:56;23.80;58.30
33564;DHT22;19894;48.452;11.494;2022-07-29T01:02:22;23.70;58.30
33564;DHT22;19894;48.452;11.494;2022-07-29T01:04:48;23.80;58.30
33564;DHT22;19894;48.452;11.494;2022-07-29T01:07:14;23.80;58.30
33564;DHT22;19894;48.452;11.494;2022-07-29T01:09:40;23.80;58.40
33564;DHT22;19894;48.452;11.494;2022-07-29T01:12:07;23.80;58.40
33564;DHT22;19894;48.452;11.494;2022-07-29T01:14:34;23.70;58.40
33564;DHT22;19894;48.452;11.494;2022-07-29T01:17:07;23.70;58.40
33564;DHT22;19894;48.452;11.494;2022-07-29T01:22:27;23.70;58.40
33564;DHT22;19894;48.452;11.494;2022-07-29T01:30:29;23.70;58.40
33564;DHT22;19894;48.452;11.494;2022-07-29T01:33:00;23.70;58.50
33564;DHT22;19894;48.452;11.494;2022-07-29T01:35:33;23.70;58.40
33564;DHT22;19894;48.452;11.494;2022-07-29T01:38:05;23.70;58.50
33564;DHT22;19894;48.452;11.494;2022-07-29T01:40:43;23.70;58.60
33564;DHT22;19894;48.452;11.494;2022-07-29T01:43:14;23.70;58.60
33564;DHT22;19894;48.452;11.494;2022-07-29T01:45:45;23.70;58.70
33564;DHT22;19894;48.452;11.494;2022-07-29T01:48:18;23.70;58.70
33564;DHT22;19894;48.452;11.494;2022-07-29T01:51:14;23.70;58.80
33564;DHT22;19894;48.452;11.494;2022-07-29T01:53:54;23.70;58.80
33564;DHT22;19894;48.452;11.494;2022-07-29T01:56:20;23.80;59.00
33564;DHT22;19894;48.452;11.494;2022-07-29T01:58:48;23.80;59.00
33564;DHT22;19894;48.452;11.494;2022-07-29T02:01:15;23.70;59.10
33564;DHT22;19894;48.452;11.494;2022-07-29T02:03:44;23.70;59.10
33564;DHT22;19894;48.452;11.494;2022-07-29T02:06:11;23.80;59.20
33564;DHT22;19894;48.452;11.494;2022-07-29T02:08:38;23.70;59.10
33564;DHT22;19894;48.452;11.494;2022-07-29T02:11:05;23.70;59.00
33564;DHT22;19894;48.452;11.494;2022-07-29T02:13:34;23.80;59.00
33564;DHT22;19894;48.452;11.494;2022-07-29T02:16:02;23.70;59.00
33564;DHT22;19894;48.452;11.494;2022-07-29T02:18:30;23.70;59.10
33564;DHT22;19894;48.452;11.494;2022-07-29T02:20:56;23.80;59.10
33564;DHT22;19894;48.452;11.494;2022-07-29T02:23:24;23.80;59.10
33564;DHT22;19894;48.452;11.494;2022-07-29T02:25:55;23.70;59.00
33564;DHT22;19894;48.452;11.494;2022-07-29T02:28:24;23.70;59.00
33564;DHT22;19894;48.452;11.494;2022-07-29T02:30:52;23.70;59.10
33564;DHT22;19894;48.452;11.494;2022-07-29T02:33:20;23.70;59.10
33564;DHT22;19894;48.452;11.494;2022-07-29T02:35:47;23.70;59.00
33564;DHT22;19894;48.452;11.494;2022-07-29T02:38:15;23.70;59.10
33564;DHT22;19894;48.452;11.494;2022-07-29T02:41:03;23.70;59.10
33564;DHT22;19894;48.452;11.494;2022-07-29T02:43:30;23.70;59.10
33564;DHT22;19894;48.452;11.494;2022-07-29T02:45:58;23.70;59.10
33564;DHT22;19894;48.452;11.494;2022-07-29T02:48:31;23.70;59.30
33564;DHT22;19894;48.452;11.494;2022-07-29T02:51:06;23.70;59.20
33564;DHT22;19894;48.452;11.494;2022-07-29T02:53:33;23.70;59.20
33564;DHT22;19894;48.452;11.494;2022-07-29T02:56:10;23.70;59.20
33564;DHT22;19894;48.452;11.494;2022-07-29T02:58:45;23.70;59.20
33564;DHT22;19894;48.452;11.494;2022-07-29T03:01:15;23.80;59.30
33564;DHT22;19894;48.452;11.494;2022-07-29T03:03:44;23.70;59.20
33564;DHT22;19894;48.452;11.494;2022-07-29T03:06:12;23.70;59.10
33564;DHT22;19894;48.452;11.494;2022-07-29T03:08:39;23.80;59.20
33564;DHT22;19894;48.452;11.494;2022-07-29T03:11:05;23.70;59.10
33564;DHT22;19894;48.452;11.494;2022-07-29T03:13:32;23.80;59.10
33564;DHT22;19894;48.452;11.494;2022-07-29T03:15:58;23.70;59.10
33564;DHT22;19894;48.452;11.494;2022-07-29T03:18:25;23.80;59.00
33564;DHT22;19894;48.452;11.494;2022-07-29T03:20:51;23.80;59.00
33564;DHT22;19894;48.452;11.494;2022-07-29T03:23:20;23.80;59.00
33564;DHT22;19894;48.452;11.494;2022-07-29T03:25:48;23.70;59.00
33564;DHT22;19894;48.452;11.494;2022-07-29T03:28:14;23.70;59.00
33564;DHT22;19894;48.452;11.494;2022-07-29T03:30:40;23.70;58.90
33564;DHT22;19894;48.452;11.494;2022-07-29T03:33:06;23.70;58.90
33564;DHT22;19894;48.452;11.494;2022-07-29T03:35:31;23.70;59.00
33564;DHT22;19894;48.452;11.494;2022-07-29T03:37:58;23.70;58.90
33564;DHT22;19894;48.452;11.494;2022-07-29T03:40:33;23.70;58.90
33564;DHT22;19894;48.452;11.494;2022-07-29T03:43:00;23.70;58.90
33564;DHT22;19894;48.452;11.494;2022-07-29T03:45:28;23.70;58.90
33564;DHT22;19894;48.452;11.494;2022-07-29T03:48:05;23.70;58.90
33564;DHT22;19894;48.452;11.494;2022-07-29T03:50:33;23.70;59.50
33564;DHT22;19894;48.452;11.494;2022-07-29T03:52:59;23.70;59.00
33564;DHT22;19894;48.452;11.494;2022-07-29T03:55:26;23.70;58.90
33564;DHT22;19894;48.452;11.494;2022-07-29T03:57:54;23.70;58.90
33564;DHT22;19894;48.452;11.494;2022-07-29T04:00:21;23.70;58.90
33564;DHT22;19894;48.452;11.494;2022-07-29T04:02:47;23.70;58.90
33564;DHT22;19894;48.452;11.494;2022-07-29T04:05:14;23.70;58.90
33564;DHT22;19894;48.452;11.494;2022-07-29T04:07:43;23.70;58.90
33564;DHT22;19894;48.452;11.494;2022-07-29T04:10:09;23.70;58.90
33564;DHT22;19894;48.452;11.494;2022-07-29T04:12:34;23.70;58.90
33564;DHT22;19894;48.452;11.494;2022-07-29T04:15:01;23.70;58.90
33564;DHT22;19894;48.452;11.494;2022-07-29T04:17:26;23.70;58.90
33564;DHT22;19894;48.452;11.494;2022-07-29T04:19:52;23.80;58.90
33564;DHT22;19894;48.452;11.494;2022-07-29T04:22:17;23.80;58.90
33564;DHT22;19894;48.452;11.494;2022-07-29T04:24:43;23.70;58.80
33564;DHT22;19894;48.452;11.494;2022-07-29T04:27:09;23.70;58.80
33564;DHT22;19894;48.452;11.494;2022-07-29T04:29:34;23.70;58.90
33564;DHT22;19894;48.452;11.494;2022-07-29T04:32:00;23.70;58.80
33564;DHT22;19894;48.452;11.494;2022-07-29T04:34:25;23.70;59.20
33564;DHT22;19894;48.452;11.494;2022-07-29T04:36:51;23.70;58.90
33564;DHT22;19894;48.452;11.494;2022-07-29T04:39:16;23.70;58.90
33564;DHT22;19894;48.452;11.494;2022-07-29T04:41:43;23.70;58.90
33564;DHT22;19894;48.452;11.494;2022-07-29T04:44:09;23.70;59.00
33564;DHT22;19894;48.452;11.494;2022-07-29T04:46:35;23.70;59.00
33564;DHT22;19894;48.452;11.494;2022-07-29T04:49:02;23.70;59.00
33564;DHT22;19894;48.452;11.494;2022-07-29T04:51:27;23.70;59.10
33564;DHT22;19894;48.452;11.494;2022-07-29T04:53:53;23.60;59.50
33564;DHT22;19894;48.452;11.494;2022-07-29T04:56:18;23.60;59.00
33564;DHT22;19894;48.452;11.494;2022-07-29T04:58:44;23.60;59.00
33564;DHT22;19894;48.452;11.494;2022-07-29T05:01:09;23.70;59.20
33564;DHT22;19894;48.452;11.494;2022-07-29T05:03:35;23.60;59.00
33564;DHT22;19894;48.452;11.494;2022-07-29T05:06:01;23.70;59.00
33564;DHT22;19894;48.452;11.494;2022-07-29T05:08:26;23.70;59.10
33564;DHT22;19894;48.452;11.494;2022-07-29T05:10:52;23.70;59.00
33564;DHT22;19894;48.452;11.494;2022-07-29T05:13:17;23.70;59.10
33564;DHT22;19894;48.452;11.494;2022-07-29T05:15:43;23.70;59.10
33564;DHT22;19894;48.452;11.494;2022-07-29T05:18:09;23.70;59.00
33564;DHT22;19894;48.452;11.494;2022-07-29T05:20:34;23.70;59.00
33564;DHT22;19894;48.452;11.494;2022-07-29T05:23:01;23.70;59.00
33564;DHT22;19894;48.452;11.494;2022-07-29T05:25:27;23.70;59.00
33564;DHT22;19894;48.452;11.494;2022-07-29T05:27:54;23.70;59.00
33564;DHT22;19894;48.452;11.494;2022-07-29T05:30:20;23.70;59.00
33564;DHT22;19894;48.452;11.494;2022-07-29T05:32:45;23.70;59.00
33564;DHT22;19894;48.452;11.494;2022-07-29T05:35:12;23.70;59.00
33564;DHT22;19894;48.452;11.494;2022-07-29T05:37:37;23.70;59.00
33564;DHT22;19894;48.452;11.494;2022-07-29T05:40:04;23.70;58.90
33564;DHT22;19894;48.452;11.494;2022-07-29T05:42:29;23.70;59.00
33564;DHT22;19894;48.452;11.494;2022-07-29T05:44:55;23.70;59.00
33564;DHT22;19894;48.452;11.494;2022-07-29T05:47:21;23.70;59.00
33564;DHT22;19894;48.452;11.494;2022-07-29T05:49:47;23.70;59.00
33564;DHT22;19894;48.452;11.494;2022-07-29T05:52:13;23.70;59.10
33564;DHT22;19894;48.452;11.494;2022-07-29T05:54:39;23.60;59.00
33564;DHT22;19894;48.452;11.494;2022-07-29T05:57:05;23.60;59.00
33564;DHT22;19894;48.452;11.494;2022-07-29T05:59:34;23.70;59.10
33564;DHT22;19894;48.452;11.494;2022-07-29T06:02:00;23.70;59.20
33564;DHT22;19894;48.452;11.494;2022-07-29T06:04:26;23.60;59.10
33564;DHT22;19894;48.452;11.494;2022-07-29T06:06:51;23.60;59.20
33564;DHT22;19894;48.452;11.494;2022-07-29T06:09:17;23.60;59.20
33564;DHT22;19894;48.452;11.494;2022-07-29T06:11:43;23.70;59.30
33564;DHT22;19894;48.452;11.494;2022-07-29T06:14:08;23.70;59.50
33564;DHT22;19894;48.452;11.494;2022-07-29T06:16:34;23.60;59.40
33564;DHT22;19894;48.452;11.494;2022-07-29T06:18:59;23.60;59.50
33564;DHT22;19894;48.452;11.494;2022-07-29T06:21:25;23.60;59.50
33564;DHT22;19894;48.452;11.494;2022-07-29T06:23:51;23.60;59.50
33564;DHT22;19894;48.452;11.494;2022-07-29T06:26:16;23.60;59.50
33564;DHT22;19894;48.452;11.494;2022-07-29T06:28:42;23.70;59.50
33564;DHT22;19894;48.452;11.494;2022-07-29T06:31:08;23.70;59.60
33564;DHT22;19894;48.452;11.494;2022-07-29T06:33:34;23.70;59.60
33564;DHT22;19894;48.452;11.494;2022-07-29T06:35:59;23.70;59.60
33564;DHT22;19894;48.452;11.494;2022-07-29T06:38:25;23.70;59.60
33564;DHT22;19894;48.452;11.494;2022-07-29T06:40:51;23.70;59.60
33564;DHT22;19894;48.452;11.494;2022-07-29T06:43:37;23.70;59.60
33564;DHT22;19894;48.452;11.494;2022-07-29T06:46:10;23.70;59.60
33564;DHT22;19894;48.452;11.494;2022-07-29T06:48:37;23.70;59.50
33564;DHT22;19894;48.452;11.494;2022-07-29T06:51:04;23.70;59.60
33564;DHT22;19894;48.452;11.494;2022-07-29T06:53:30;23.70;59.60
33564;DHT22;19894;48.452;11.494;2022-07-29T06:55:57;23.70;59.60
33564;DHT22;19894;48.452;11.494;2022-07-29T06:58:23;23.70;59.60
33564;DHT22;19894;48.452;11.494;2022-07-29T07:00:49;23.70;59.80
33564;DHT22;19894;48.452;11.494;2022-07-29T07:03:16;23.70;59.70
33564;DHT22;19894;48.452;11.494;2022-07-29T07:05:42;23.70;59.80
33564;DHT22;19894;48.452;11.494;2022-07-29T07:08:08;23.70;59.80
33564;DHT22;19894;48.452;11.494;2022-07-29T07:10:34;23.60;59.90
33564;DHT22;19894;48.452;11.494;2022-07-29T07:13:00;23.70;60.00
33564;DHT22;19894;48.452;11.494;2022-07-29T07:15:27;23.60;59.90
33564;DHT22;19894;48.452;11.494;2022-07-29T07:17:53;23.60;60.20
33564;DHT22;19894;48.452;11.494;2022-07-29T07:20:18;23.70;60.10
33564;DHT22;19894;48.452;11.494;2022-07-29T07:22:44;23.70;60.10
33564;DHT22;19894;48.452;11.494;2022-07-29T07:25:11;23.70;60.10
33564;DHT22;19894;48.452;11.494;2022-07-29T07:27:37;23.70;60.20
33564;DHT22;19894;48.452;11.494;2022-07-29T07:30:04;23.70;60.20
33564;DHT22;19894;48.452;11.494;2022-07-29T07:32:34;23.70;60.20
33564;DHT22;19894;48.452;11.494;2022-07-29T07:35:00;23.70;60.10
33564;DHT22;19894;48.452;11.494;2022-07-29T07:37:26;23.70;60.10
33564;DHT22;19894;48.452;11.494;2022-07-29T07:39:52;23.70;60.20
33564;DHT22;19894;48.452;11.494;2022-07-29T07:42:18;23.70;60.20
33564;DHT22;19894;48.452;11.494;2022-07-29T07:44:44;23.80;60.20
33564;DHT22;19894;48.452;11.494;2022-07-29T07:47:12;23.70;60.10
33564;DHT22;19894;48.452;11.494;2022-07-29T07:49:38;23.70;60.00
33564;DHT22;19894;48.452;11.494;2022-07-29T07:52:04;23.70;59.90
33564;DHT22;19894;48.452;11.494;2022-07-29T07:54:29;23.70;59.90
33564;DHT22;19894;48.452;11.494;2022-07-29T07:56:56;23.70;59.80
33564;DHT22;19894;48.452;11.494;2022-07-29T07:59:22;23.70;59.80
33564;DHT22;19894;48.452;11.494;2022-07-29T08:01:48;23.70;59.80
33564;DHT22;19894;48.452;11.494;2022-07-29T08:04:13;23.70;59.70
33564;DHT22;19894;48.452;11.494;2022-07-29T08:06:39;23.70;59.70
33564;DHT22;19894;48.452;11.494;2022-07-29T08:09:05;23.70;59.70
33564;DHT22;19894;48.452;11.494;2022-07-29T08:11:31;23.70;59.70
33564;DHT22;19894;48.452;11.494;2022-07-29T08:13:56;23.70;59.60
33564;DHT22;19894;48.452;11.494;2022-07-29T08:16:22;23.70;59.70
33564;DHT22;19894;48.452;11.494;2022-07-29T08:18:50;23.70;59.70
33564;DHT22;19894;48.452;11.494;2022-07-29T08:21:16;23.70;59.70
33564;DHT22;19894;48.452;11.494;2022-07-29T08:23:46;23.70;59.70
33564;DHT22;19894;48.452;11.494;2022-07-29T08:26:14;23.70;59.60
33564;DHT22;19894;48.452;11.494;2022-07-29T08:28:42;23.60;59.60
33564;DHT22;19894;48.452;11.494;2022-07-29T08:31:14;23.70;59.70
33564;DHT22;19894;48.452;11.494;2022-07-29T08:33:40;23.70;59.80
33564;DHT22;19894;48.452;11.494;2022-07-29T08:36:06;23.70;59.80
33564;DHT22;19894;48.452;11.494;2022-07-29T08:38:32;23.70;59.80
33564;DHT22;19894;48.452;11.494;2022-07-29T08:40:59;23.70;59.80
33564;DHT22;19894;48.452;11.494;2022-07-29T08:43:25;23.70;59.90
33564;DHT22;19894;48.452;11.494;2022-07-29T08:45:51;23.80;60.00
33564;DHT22;19894;48.452;11.494;2022-07-29T08:48:22;23.70;59.90
33564;DHT22;19894;48.452;11.494;2022-07-29T08:50:50;23.70;59.90
33564;DHT22;19894;48.452;11.494;2022-07-29T08:53:17;23.70;59.80
33564;DHT22;19894;48.452;11.494;2022-07-29T08:55:45;23.70;59.70
33564;DHT22;19894;48.452;11.494;2022-07-29T08:58:12;23.70;59.70
33564;DHT22;19894;48.452;11.494;2022-07-29T09:00:42;23.70;59.70
33564;DHT22;19894;48.452;11.494;2022-07-29T09:03:09;23.70;59.60
33564;DHT22;19894;48.452;11.494;2022-07-29T09:05:36;23.70;59.40
33564;DHT22;19894;48.452;11.494;2022-07-29T09:08:02;23.70;59.30
33564;DHT22;19894;48.452;11.494;2022-07-29T09:10:29;23.70;59.70
33564;DHT22;19894;48.452;11.494;2022-07-29T09:12:55;23.70;59.00
33564;DHT22;19894;48.452;11.494;2022-07-29T09:15:21;23.70;58.90
33564;DHT22;19894;48.452;11.494;2022-07-29T09:17:48;23.70;58.90
33564;DHT22;19894;48.452;11.494;2022-07-29T09:20:17;23.70;58.80
33564;DHT22;19894;48.452;11.494;2022-07-29T09:22:42;23.70;58.90
33564;DHT22;19894;48.452;11.494;2022-07-29T09:25:10;23.70;58.90
33564;DHT22;19894;48.452;11.494;2022-07-29T09:27:36;23.70;59.00
33564;DHT22;19894;48.452;11.494;2022-07-29T09:30:05;23.70;58.90
33564;DHT22;19894;48.452;11.494;2022-07-29T09:32:32;23.70;59.00
33564;DHT22;19894;48.452;11.494;2022-07-29T09:37:43;23.70;59.00
33564;DHT22;19894;48.452;11.494;2022-07-29T09:40:17;23.70;59.10
33564;DHT22;19894;48.452;11.494;2022-07-29T09:42:43;23.70;59.00
33564;DHT22;19894;48.452;11.494;2022-07-29T09:45:10;23.70;58.90
33564;DHT22;19894;48.452;11.494;2022-07-29T09:47:47;23.70;58.90
33564;DHT22;19894;48.452;11.494;2022-07-29T09:50:15;23.70;58.90
33564;DHT22;19894;48.452;11.494;2022-07-29T09:52:46;23.70;58.90
33564;DHT22;19894;48.452;11.494;2022-07-29T09:55:13;23.80;59.00
33564;DHT22;19894;48.452;11.494;2022-07-29T09:57:39;23.70;58.90
33564;DHT22;19894;48.452;11.494;2022-07-29T10:02:34;23.70;59.10
33564;DHT22;19894;48.452;11.494;2022-07-29T10:05:01;23.70;59.20
33564;DHT22;19894;48.452;11.494;2022-07-29T10:07:43;23.70;59.20
33564;DHT22;19894;48.452;11.494;2022-07-29T10:10:09;23.70;59.30
33564;DHT22;19894;48.452;11.494;2022-07-29T10:12:58;23.70;59.40
33564;DHT22;19894;48.452;11.494;2022-07-29T10:15:26;23.70;59.50
33564;DHT22;19894;48.452;11.494;2022-07-29T10:17:53;23.70;59.50
33564;DHT22;19894;48.452;11.494;2022-07-29T10:20:20;23.70;59.50
33564;DHT22;19894;48.452;11.494;2022-07-29T10:22:47;23.70;59.50
33564;DHT22;19894;48.452;11.494;2022-07-29T10:25:14;23.70;59.50
33564;DHT22;19894;48.452;11.494;2022-07-29T10:27:40;23.70;59.60
33564;DHT22;19894;48.452;11.494;2022-07-29T10:30:06;23.70;59.60
33564;DHT22;19894;48.452;11.494;2022-07-29T10:38:41;23.70;59.70
33564;DHT22;19894;48.452;11.494;2022-07-29T10:44:02;23.70;59.70
33564;DHT22;19894;48.452;11.494;2022-07-29T10:46:34;23.70;59.80
33564;DHT22;19894;48.452;11.494;2022-07-29T10:49:12;23.70;59.90
33564;DHT22;19894;48.452;11.494;2022-07-29T10:59:49;23.70;59.60
33564;DHT22;19894;48.452;11.494;2022-07-29T11:05:15;23.70;59.60
33564;DHT22;19894;48.452;11.494;2022-07-29T11:10:39;23.80;59.60
33564;DHT22;19894;48.452;11.494;2022-07-29T11:13:05;23.80;59.60
33564;DHT22;19894;48.452;11.494;2022-07-29T11:15:56;23.80;59.60
33564;DHT22;19894;48.452;11.494;2022-07-29T11:18:22;23.80;59.80
33564;DHT22;19894;48.452;11.494;2022-07-29T11:20:50;23.70;59.70
33564;DHT22;19894;48.452;11.494;2022-07-29T11:23:20;23.70;59.70
33564;DHT22;19894;48.452;11.494;2022-07-29T11:28:38;23.70;59.70
33564;DHT22;19894;48.452;11.494;2022-07-29T11:31:05;23.70;59.80
33564;DHT22;19894;48.452;11.494;2022-07-29T11:33:34;23.70;59.80
33564;DHT22;19894;48.452;11.494;2022-07-29T11:36:13;23.70;59.90
33564;DHT22;19894;48.452;11.494;2022-07-29T11:38:39;23.70;59.80
33564;DHT22;19894;48.452;11.494;2022-07-29T11:44:01;23.70;59.80
33564;DHT22;19894;48.452;11.494;2022-07-29T11:46:49;23.70;59.70
33564;DHT22;19894;48.452;11.494;2022-07-29T11:49:19;23.70;59.70
33564;DHT22;19894;48.452;11.494;2022-07-29T11:51:51;23.70;59.60
33564;DHT22;19894;48.452;11.494;2022-07-29T11:54:24;23.70;59.60
33564;DHT22;19894;48.452;11.494;2022-07-29T11:56:51;23.70;59.60
33564;DHT22;19894;48.452;11.494;2022-07-29T11:59:17;23.70;59.50
33564;DHT22;19894;48.452;11.494;2022-07-29T12:01:58;23.80;59.40
33564;DHT22;19894;48.452;11.494;2022-07-29T12:04:24;23.80;59.30
33564;DHT22;19894;48.452;11.494;2022-07-29T12:06:54;23.70;59.10
33564;DHT22;19894;48.452;11.494;2022-07-29T12:09:20;23.70;59.10
33564;DHT22;19894;48.452;11.494;2022-07-29T12:11:47;23.70;59.50
33564;DHT22;19894;48.452;11.494;2022-07-29T12:14:30;23.70;58.90
33564;DHT22;19894;48.452;11.494;2022-07-29T12:16:56;23.80;58.60
33564;DHT22;19894;48.452;11.494;2022-07-29T12:19:22;23.80;58.50
33564;DHT22;19894;48.452;11.494;2022-07-29T12:21:50;23.80;58.40
33564;DHT22;19894;48.452;11.494;2022-07-29T12:24:17;23.80;58.30
33564;DHT22;19894;48.452;11.494;2022-07-29T12:26:59;23.80;58.20
33564;DHT22;19894;48.452;11.494;2022-07-29T12:29:25;23.80;57.80
33564;DHT22;19894;48.452;11.494;2022-07-29T12:31:55;23.80;57.60
33564;DHT22;19894;48.452;11.494;2022-07-29T12:34:23;23.70;57.20
33564;DHT22;19894;48.452;11.494;2022-07-29T12:36:50;23.70;57.20
33564;DHT22;19894;48.452;11.494;2022-07-29T12:39:16;23.70;57.00
33564;DHT22;19894;48.452;11.494;2022-07-29T12:41:42;23.70;57.10
33564;DHT22;19894;48.452;11.494;2022-07-29T12:44:08;23.70;57.00
33564;DHT22;19894;48.452;11.494;2022-07-29T12:46:34;23.70;56.80
33564;DHT22;19894;48.452;11.494;2022-07-29T12:49:00;23.70;56.80
33564;DHT22;19894;48.452;11.494;2022-07-29T12:51:33;23.70;56.70
33564;DHT22;19894;48.452;11.494;2022-07-29T12:54:13;23.70;56.50
33564;DHT22;19894;48.452;11.494;2022-07-29T12:56:44;23.70;56.40
33564;DHT22;19894;48.452;11.494;2022-07-29T12:59:21;23.70;56.50
33564;DHT22;19894;48.452;11.494;2022-07-29T13:01:50;23.70;56.30
33564;DHT22;19894;48.452;11.494;2022-07-29T13:04:27;23.70;56.30
33564;DHT22;19894;48.452;11.494;2022-07-29T13:07:04;23.70;56.10
33564;DHT22;19894;48.452;11.494;2022-07-29T13:09:41;23.70;56.20
33564;DHT22;19894;48.452;11.494;2022-07-29T13:12:12;23.70;56.30
33564;DHT22;19894;48.452;11.494;2022-07-29T13:14:43;23.70;56.30
33564;DHT22;19894;48.452;11.494;2022-07-29T13:17:22;23.70;56.30
33564;DHT22;19894;48.452;11.494;2022-07-29T13:19:53;23.70;56.20
33564;DHT22;19894;48.452;11.494;2022-07-29T13:22:23;23.70;56.10
33564;DHT22;19894;48.452;11.494;2022-07-29T13:24:54;23.70;55.80
33564;DHT22;19894;48.452;11.494;2022-07-29T13:27:25;23.70;55.70
33564;DHT22;19894;48.452;11.494;2022-07-29T13:29:52;23.70;55.60
33564;DHT22;19894;48.452;11.494;2022-07-29T13:32:19;23.70;55.50
33564;DHT22;19894;48.452;11.494;2022-07-29T13:34:45;23.70;56.00
33564;DHT22;19894;48.452;11.494;2022-07-29T13:37:10;23.70;55.40
33564;DHT22;19894;48.452;11.494;2022-07-29T13:39:36;23.70;55.50
33564;DHT22;19894;48.452;11.494;2022-07-29T13:42:03;23.70;55.50
33564;DHT22;19894;48.452;11.494;2022-07-29T13:44:29;23.70;55.60
33564;DHT22;19894;48.452;11.494;2022-07-29T13:46:54;23.70;55.60
33564;DHT22;19894;48.452;11.494;2022-07-29T13:49:21;23.70;55.60
33564;DHT22;19894;48.452;11.494;2022-07-29T13:51:48;23.70;55.70
33564;DHT22;19894;48.452;11.494;2022-07-29T13:54:14;23.70;55.70
33564;DHT22;19894;48.452;11.494;2022-07-29T13:56:40;23.70;55.80
33564;DHT22;19894;48.452;11.494;2022-07-29T13:59:05;23.70;55.90
33564;DHT22;19894;48.452;11.494;2022-07-29T14:01:31;23.60;55.70
33564;DHT22;19894;48.452;11.494;2022-07-29T14:03:57;23.70;55.90
33564;DHT22;19894;48.452;11.494;2022-07-29T14:06:22;23.60;55.80
33564;DHT22;19894;48.452;11.494;2022-07-29T14:08:48;23.70;55.80
33564;DHT22;19894;48.452;11.494;2022-07-29T14:11:13;23.70;55.70
33564;DHT22;19894;48.452;11.494;2022-07-29T14:13:39;23.70;55.40
33564;DHT22;19894;48.452;11.494;2022-07-29T14:16:05;23.70;55.30
33564;DHT22;19894;48.452;11.494;2022-07-29T14:18:32;23.70;55.00
33564;DHT22;19894;48.452;11.494;2022-07-29T14:20:57;23.70;55.00
33564;DHT22;19894;48.452;11.494;2022-07-29T14:23:23;23.70;54.90
33564;DHT22;19894;48.452;11.494;2022-07-29T14:25:49;23.70;55.00
33564;DHT22;19894;48.452;11.494;2022-07-29T14:28:14;23.70;54.90
33564;DHT22;19894;48.452;11.494;2022-07-29T14:30:40;23.70;55.00
33564;DHT22;19894;48.452;11.494;2022-07-29T14:33:05;23.70;55.00
33564;DHT22;19894;48.452;11.494;2022-07-29T14:35:31;23.70;55.00
33564;DHT22;19894;48.452;11.494;2022-07-29T14:37:56;23.70;55.00
33564;DHT22;19894;48.452;11.494;2022-07-29T14:40:22;23.70;55.00
33564;DHT22;19894;48.452;11.494;2022-07-29T14:42:48;23.70;55.00
33564;DHT22;19894;48.452;11.494;2022-07-29T14:45:13;23.70;55.00
33564;DHT22;19894;48.452;11.494;2022-07-29T14:47:39;23.70;55.00
33564;DHT22;19894;48.452;11.494;2022-07-29T14:50:06;23.70;55.10
33564;DHT22;19894;48.452;11.494;2022-07-29T14:52:31;23.70;55.50
33564;DHT22;19894;48.452;11.494;2022-07-29T14:54:57;23.70;55.00
33564;DHT22;19894;48.452;11.494;2022-07-29T14:57:23;23.70;55.00
33564;DHT22;19894;48.452;11.494;2022-07-29T14:59:49;23.70;55.10
33564;DHT22;19894;48.452;11.494;2022-07-29T15:02:15;23.70;55.00
33564;DHT22;19894;48.452;11.494;2022-07-29T15:04:41;23.70;55.00
33564;DHT22;19894;48.452;11.494;2022-07-29T15:07:07;23.70;55.20
33564;DHT22;19894;48.452;11.494;2022-07-29T15:09:33;23.70;55.00
33564;DHT22;19894;48.452;11.494;2022-07-29T15:11:59;23.60;54.90
33564;DHT22;19894;48.452;11.494;2022-07-29T15:14:24;23.70;54.80
33564;DHT22;19894;48.452;11.494;2022-07-29T15:16:50;23.70;54.60
33564;DHT22;19894;48.452;11.494;2022-07-29T15:19:16;23.70;54.60
33564;DHT22;19894;48.452;11.494;2022-07-29T15:21:41;23.70;54.50
33564;DHT22;19894;48.452;11.494;2022-07-29T15:24:07;23.70;54.50
33564;DHT22;19894;48.452;11.494;2022-07-29T15:26:33;23.70;54.50
33564;DHT22;19894;48.452;11.494;2022-07-29T15:28:59;23.70;54.30
33564;DHT22;19894;48.452;11.494;2022-07-29T15:31:25;23.70;54.30
33564;DHT22;19894;48.452;11.494;2022-07-29T15:33:50;23.70;54.30
33564;DHT22;19894;48.452;11.494;2022-07-29T15:36:16;23.70;54.30
33564;DHT22;19894;48.452;11.494;2022-07-29T15:38:41;23.70;54.30
33564;DHT22;19894;48.452;11.494;2022-07-29T15:41:07;23.70;54.70
33564;DHT22;19894;48.452;11.494;2022-07-29T15:43:33;23.70;54.20
33564;DHT22;19894;48.452;11.494;2022-07-29T15:46:00;23.70;54.30
33564;DHT22;19894;48.452;11.494;2022-07-29T15:48:45;23.70;54.30
33564;DHT22;19894;48.452;11.494;2022-07-29T15:51:11;23.70;54.50
33564;DHT22;19894;48.452;11.494;2022-07-29T15:53:36;23.70;54.50
33564;DHT22;19894;48.452;11.494;2022-07-29T15:56:02;23.70;54.50
33564;DHT22;19894;48.452;11.494;2022-07-29T15:58:27;23.70;54.60
33564;DHT22;19894;48.452;11.494;2022-07-29T16:00:53;23.70;54.50